sensor_id;sensor_type;location;lat;lon;timestamp;temperature;humidity
76263;DHT22;65080;50.908;6.916;2022-11-20T00:01:51;6.20;63.70
76263;DHT22;65080;50.908;6.916;2022-11-20T00:04:20;6.20;63.70
76263;DHT22;65080;50.908;6.916;2022-11-20T00:06:49;6.20;63.70
76263;DHT22;65080;50.908;6.916;2022-11-20T00:09:17;6.10;63.60
76263;DHT22;65080;50.908;6.916;2022-11-20T00:11:46;6.10;63.50
76263;DHT22;65080;50.908;6.916;2022-11-20T00:14:14;6.10;63.50
76263;DHT22;65080;50.908;6.916;2022-11-20T00:16:42;6.20;63.60
76263;DHT22;65080;50.908;6.916;2022-11-20T00:19:10;6.20;63.50
76263;DHT22;65080;50.908;6.916;2022-11-20T00:21:38;6.20;63.50
76263;DHT22;65080;50.908;6.916;2022-11-20T00:24:09;6.10;64.10
76263;DHT22;65080;50.908;6.916;2022-11-20T00:26:38;6.10;63.40
76263;DHT22;65080;50.908;6.916;2022-11-20T00:29:09;6.10;63.40
76263;DHT22;65080;50.908;6.916;2022-11-20T00:31:37;6.10;63.30
76263;DHT22;65080;50.908;6.916;2022-11-20T00:34:05;6.10;63.30
76263;DHT22;65080;50.908;6.916;2022-11-20T00:36:34;6.10;63.40
76263;DHT22;65080;50.908;6.916;2022-11-20T00:39:03;6.10;63.30
76263;DHT22;65080;50.908;6.916;2022-11-20T00:41:32;6.10;63.20
76263;DHT22;65080;50.908;6.916;2022-11-20T00:44:01;6.10;63.20
76263;DHT22;65080;50.908;6.916;2022-11-20T00:46:29;6.10;63.20
76263;DHT22;65080;50.908;6.916;2022-11-20T00:48:57;6.10;63.20
76263;DHT22;65080;50.908;6.916;2022-11-20T00:51:26;6.20;63.30
76263;DHT22;65080;50.908;6.916;2022-11-20T00:53:56;6.20;63.20
76263;DHT22;65080;50.908;6.916;2022-11-20T00:56:24;6.10;63.00
76263;DHT22;65080;50.908;6.916;2022-11-20T00:58:54;6.10;63.10
76263;DHT22;65080;50.908;6.916;2022-11-20T01:01:24;6.10;63.10
76263;DHT22;65080;50.908;6.916;2022-11-20T01:03:54;6.10;63.10
76263;DHT22;65080;50.908;6.916;2022-11-20T01:06:24;6.10;63.00
76263;DHT22;65080;50.908;6.916;2022-11-20T01:08:54;6.10;63.00
76263;DHT22;65080;50.908;6.916;2022-11-20T01:11:24;6.10;63.00
76263;DHT22;65080;50.908;6.916;2022-11-20T01:13:55;6.10;63.00
76263;DHT22;65080;50.908;6.916;2022-11-20T01:16:25;6.20;63.00
76263;DHT22;65080;50.908;6.916;2022-11-20T01:18:56;6.10;62.70
76263;DHT22;65080;50.908;6.916;2022-11-20T01:21:26;6.10;62.60
76263;DHT22;65080;50.908;6.916;2022-11-20T01:23:54;6.10;62.60
76263;DHT22;65080;50.908;6.916;2022-11-20T01:26:24;6.10;62.60
76263;DHT22;65080;50.908;6.916;2022-11-20T01:28:55;6.00;62.50
76263;DHT22;65080;50.908;6.916;2022-11-20T01:31:25;6.00;62.50
76263;DHT22;65080;50.908;6.916;2022-11-20T01:33:55;6.00;62.50
76263;DHT22;65080;50.908;6.916;2022-11-20T01:36:25;6.00;62.60
76263;DHT22;65080;50.908;6.916;2022-11-20T01:38:54;6.00;62.50
76263;DHT22;65080;50.908;6.916;2022-11-20T01:41:23;6.10;62.50
76263;DHT22;65080;50.908;6.916;2022-11-20T01:44:21;6.10;62.50
76263;DHT22;65080;50.908;6.916;2022-11-20T01:46:54;6.10;62.50
76263;DHT22;65080;50.908;6.916;2022-11-20T01:49:28;6.10;62.40
76263;DHT22;65080;50.908;6.916;2022-11-20T01:52:01;6.10;62.40
76263;DHT22;65080;50.908;6.916;2022-11-20T01:54:33;6.10;62.40
76263;DHT22;65080;50.908;6.916;2022-11-20T01:57:04;6.10;62.50
76263;DHT22;65080;50.908;6.916;2022-11-20T01:59:38;6.10;62.50
76263;DHT22;65080;50.908;6.916;2022-11-20T02:02:09;6.10;62.50
76263;DHT22;65080;50.908;6.916;2022-11-20T02:04:37;6.10;62.50
76263;DHT22;65080;50.908;6.916;2022-11-20T02:07:06;6.10;62.60
76263;DHT22;65080;50.908;6.916;2022-11-20T02:09:34;6.10;62.60
76263;DHT22;65080;50.908;6.916;2022-11-20T02:12:03;6.00;62.50
76263;DHT22;65080;50.908;6.916;2022-11-20T02:14:31;6.00;62.50
76263;DHT22;65080;50.908;6.916;2022-11-20T02:17:00;6.00;62.50
76263;DHT22;65080;50.908;6.916;2022-11-20T02:19:31;5.90;62.40
76263;DHT22;65080;50.908;6.916;2022-11-20T02:22:03;5.90;62.50
76263;DHT22;65080;50.908;6.916;2022-11-20T02:24:35;5.80;62.50
76263;DHT22;65080;50.908;6.916;2022-11-20T02:27:06;5.80;62.60
76263;DHT22;65080;50.908;6.916;2022-11-20T02:29:37;5.80;62.60
76263;DHT22;65080;50.908;6.916;2022-11-20T02:32:18;5.80;62.60
76263;DHT22;65080;50.908;6.916;2022-11-20T02:34:46;5.80;62.70
76263;DHT22;65080;50.908;6.916;2022-11-20T02:37:15;5.80;62.70
76263;DHT22;65080;50.908;6.916;2022-11-20T02:39:46;5.80;62.80
76263;DHT22;65080;50.908;6.916;2022-11-20T02:42:15;5.80;62.80
76263;DHT22;65080;50.908;6.916;2022-11-20T02:44:43;5.80;62.90
76263;DHT22;65080;50.908;6.916;2022-11-20T02:47:12;5.70;62.90
76263;DHT22;65080;50.908;6.916;2022-11-20T02:49:40;5.70;63.00
76263;DHT22;65080;50.908;6.916;2022-11-20T02:52:08;5.70;63.00
76263;DHT22;65080;50.908;6.916;2022-11-20T02:54:36;5.70;63.10
76263;DHT22;65080;50.908;6.916;2022-11-20T02:57:05;5.70;63.20
76263;DHT22;65080;50.908;6.916;2022-11-20T02:59:34;5.70;63.20
76263;DHT22;65080;50.908;6.916;2022-11-20T03:02:02;5.70;63.20
76263;DHT22;65080;50.908;6.916;2022-11-20T03:04:30;5.70;63.20
76263;DHT22;65080;50.908;6.916;2022-11-20T03:06:58;5.70;63.20
76263;DHT22;65080;50.908;6.916;2022-11-20T03:09:27;5.70;63.20
76263;DHT22;65080;50.908;6.916;2022-11-20T03:11:55;5.70;63.20
76263;DHT22;65080;50.908;6.916;2022-11-20T03:14:24;5.70;63.20
76263;DHT22;65080;50.908;6.916;2022-11-20T03:16:52;5.60;63.10
76263;DHT22;65080;50.908;6.916;2022-11-20T03:19:21;5.60;63.20
76263;DHT22;65080;50.908;6.916;2022-11-20T03:21:49;5.60;63.40
76263;DHT22;65080;50.908;6.916;2022-11-20T03:24:18;5.60;63.60
76263;DHT22;65080;50.908;6.916;2022-11-20T03:26:46;5.60;63.50
76263;DHT22;65080;50.908;6.916;2022-11-20T03:29:14;5.60;63.50
76263;DHT22;65080;50.908;6.916;2022-11-20T03:31:43;5.60;63.50
76263;DHT22;65080;50.908;6.916;2022-11-20T03:34:12;5.60;63.40
76263;DHT22;65080;50.908;6.916;2022-11-20T03:36:41;5.60;63.50
76263;DHT22;65080;50.908;6.916;2022-11-20T03:39:10;5.70;63.70
76263;DHT22;65080;50.908;6.916;2022-11-20T03:41:40;5.70;63.70
76263;DHT22;65080;50.908;6.916;2022-11-20T03:44:10;5.70;63.70
76263;DHT22;65080;50.908;6.916;2022-11-20T03:46:38;5.70;63.60
76263;DHT22;65080;50.908;6.916;2022-11-20T03:49:08;5.70;63.60
76263;DHT22;65080;50.908;6.916;2022-11-20T03:51:36;5.70;63.70
76263;DHT22;65080;50.908;6.916;2022-11-20T03:54:06;5.70;63.60
76263;DHT22;65080;50.908;6.916;2022-11-20T03:56:36;5.70;63.70
76263;DHT22;65080;50.908;6.916;2022-11-20T03:59:05;5.70;63.80
76263;DHT22;65080;50.908;6.916;2022-11-20T04:01:35;5.70;63.90
76263;DHT22;65080;50.908;6.916;2022-11-20T04:04:03;5.70;63.90
76263;DHT22;65080;50.908;6.916;2022-11-20T04:06:36;5.70;63.90
76263;DHT22;65080;50.908;6.916;2022-11-20T04:09:06;5.80;64.10
76263;DHT22;65080;50.908;6.916;2022-11-20T04:11:35;5.80;64.10
76263;DHT22;65080;50.908;6.916;2022-11-20T04:14:05;5.80;64.10
76263;DHT22;65080;50.908;6.916;2022-11-20T04:16:35;5.80;64.20
76263;DHT22;65080;50.908;6.916;2022-11-20T04:19:08;5.80;64.20
76263;DHT22;65080;50.908;6.916;2022-11-20T04:21:38;5.80;64.30
76263;DHT22;65080;50.908;6.916;2022-11-20T04:24:07;5.80;64.40
76263;DHT22;65080;50.908;6.916;2022-11-20T04:26:37;5.80;64.50
76263;DHT22;65080;50.908;6.916;2022-11-20T04:29:05;5.80;64.50
76263;DHT22;65080;50.908;6.916;2022-11-20T04:31:34;5.80;64.60
76263;DHT22;65080;50.908;6.916;2022-11-20T04:34:04;5.80;64.60
76263;DHT22;65080;50.908;6.916;2022-11-20T04:36:32;5.80;64.60
76263;DHT22;65080;50.908;6.916;2022-11-20T04:39:03;5.80;64.70
76263;DHT22;65080;50.908;6.916;2022-11-20T04:41:34;5.80;64.70
76263;DHT22;65080;50.908;6.916;2022-11-20T04:44:03;5.80;64.80
76263;DHT22;65080;50.908;6.916;2022-11-20T04:46:34;5.80;64.80
76263;DHT22;65080;50.908;6.916;2022-11-20T04:49:02;5.80;64.90
76263;DHT22;65080;50.908;6.916;2022-11-20T04:51:31;5.80;65.50
76263;DHT22;65080;50.908;6.916;2022-11-20T04:53:59;5.80;64.80
76263;DHT22;65080;50.908;6.916;2022-11-20T04:56:29;5.80;64.90
76263;DHT22;65080;50.908;6.916;2022-11-20T04:59:00;5.80;65.20
76263;DHT22;65080;50.908;6.916;2022-11-20T05:01:29;5.80;65.40
76263;DHT22;65080;50.908;6.916;2022-11-20T05:03:59;5.80;65.50
76263;DHT22;65080;50.908;6.916;2022-11-20T05:06:27;5.80;65.60
76263;DHT22;65080;50.908;6.916;2022-11-20T05:08:55;5.80;65.70
76263;DHT22;65080;50.908;6.916;2022-11-20T05:11:24;5.80;65.80
76263;DHT22;65080;50.908;6.916;2022-11-20T05:13:53;5.80;65.80
76263;DHT22;65080;50.908;6.916;2022-11-20T05:16:23;5.80;65.80
76263;DHT22;65080;50.908;6.916;2022-11-20T05:18:53;5.80;65.90
76263;DHT22;65080;50.908;6.916;2022-11-20T05:21:22;5.80;65.90
76263;DHT22;65080;50.908;6.916;2022-11-20T05:23:50;5.80;65.90
76263;DHT22;65080;50.908;6.916;2022-11-20T05:26:20;5.80;65.80
76263;DHT22;65080;50.908;6.916;2022-11-20T05:28:49;5.80;65.80
76263;DHT22;65080;50.908;6.916;2022-11-20T05:31:21;5.80;65.90
76263;DHT22;65080;50.908;6.916;2022-11-20T05:33:55;5.80;65.90
76263;DHT22;65080;50.908;6.916;2022-11-20T05:36:23;5.80;65.80
76263;DHT22;65080;50.908;6.916;2022-11-20T05:38:51;5.90;65.80
76263;DHT22;65080;50.908;6.916;2022-11-20T05:41:27;5.90;65.90
76263;DHT22;65080;50.908;6.916;2022-11-20T05:43:56;5.90;65.80
76263;DHT22;65080;50.908;6.916;2022-11-20T05:46:26;5.90;65.90
76263;DHT22;65080;50.908;6.916;2022-11-20T05:48:56;5.90;65.90
76263;DHT22;65080;50.908;6.916;2022-11-20T05:51:25;5.90;66.00
76263;DHT22;65080;50.908;6.916;2022-11-20T05:53:53;5.90;66.00
76263;DHT22;65080;50.908;6.916;2022-11-20T05:56:22;5.90;66.70
76263;DHT22;65080;50.908;6.916;2022-11-20T05:58:50;5.90;66.00
76263;DHT22;65080;50.908;6.916;2022-11-20T06:01:19;6.00;66.10
76263;DHT22;65080;50.908;6.916;2022-11-20T06:03:50;6.00;66.20
76263;DHT22;65080;50.908;6.916;2022-11-20T06:06:19;6.00;66.20
76263;DHT22;65080;50.908;6.916;2022-11-20T06:08:48;6.00;66.20
76263;DHT22;65080;50.908;6.916;2022-11-20T06:11:17;5.90;66.10
76263;DHT22;65080;50.908;6.916;2022-11-20T06:13:45;5.90;65.90
76263;DHT22;65080;50.908;6.916;2022-11-20T06:16:15;6.00;66.20
76263;DHT22;65080;50.908;6.916;2022-11-20T06:18:43;6.00;66.20
76263;DHT22;65080;50.908;6.916;2022-11-20T06:21:15;6.00;66.10
76263;DHT22;65080;50.908;6.916;2022-11-20T06:23:44;6.00;66.20
76263;DHT22;65080;50.908;6.916;2022-11-20T06:26:13;6.00;66.20
76263;DHT22;65080;50.908;6.916;2022-11-20T06:28:42;6.00;66.10
76263;DHT22;65080;50.908;6.916;2022-11-20T06:31:11;6.00;66.10
76263;DHT22;65080;50.908;6.916;2022-11-20T06:33:40;6.00;66.10
76263;DHT22;65080;50.908;6.916;2022-11-20T06:36:10;6.00;66.00
76263;DHT22;65080;50.908;6.916;2022-11-20T06:38:40;6.10;66.10
76263;DHT22;65080;50.908;6.916;2022-11-20T06:41:11;6.10;66.10
76263;DHT22;65080;50.908;6.916;2022-11-20T06:43:40;6.10;66.10
76263;DHT22;65080;50.908;6.916;2022-11-20T06:46:09;6.10;66.10
76263;DHT22;65080;50.908;6.916;2022-11-20T06:48:37;6.10;66.10
76263;DHT22;65080;50.908;6.916;2022-11-20T06:51:07;6.10;66.20
76263;DHT22;65080;50.908;6.916;2022-11-20T06:53:35;6.10;66.10
76263;DHT22;65080;50.908;6.916;2022-11-20T06:56:06;6.10;66.10
76263;DHT22;65080;50.908;6.916;2022-11-20T06:58:35;6.20;66.20
76263;DHT22;65080;50.908;6.916;2022-11-20T07:01:05;6.20;66.20
76263;DHT22;65080;50.908;6.916;2022-11-20T07:03:34;6.20;66.10
76263;DHT22;65080;50.908;6.916;2022-11-20T07:06:03;6.20;66.10
76263;DHT22;65080;50.908;6.916;2022-11-20T07:08:31;6.20;66.10
76263;DHT22;65080;50.908;6.916;2022-11-20T07:11:01;6.20;66.00
76263;DHT22;65080;50.908;6.916;2022-11-20T07:13:31;6.20;65.90
76263;DHT22;65080;50.908;6.916;2022-11-20T07:16:00;6.20;65.80
76263;DHT22;65080;50.908;6.916;2022-11-20T07:18:28;6.20;65.70
76263;DHT22;65080;50.908;6.916;2022-11-20T07:21:00;6.20;65.70
76263;DHT22;65080;50.908;6.916;2022-11-20T07:23:28;6.20;65.90
76263;DHT22;65080;50.908;6.916;2022-11-20T07:25:56;6.10;66.00
76263;DHT22;65080;50.908;6.916;2022-11-20T07:28:24;6.10;66.10
76263;DHT22;65080;50.908;6.916;2022-11-20T07:30:54;6.10;66.40
76263;DHT22;65080;50.908;6.916;2022-11-20T07:33:22;6.10;66.50
76263;DHT22;65080;50.908;6.916;2022-11-20T07:35:50;6.00;66.60
76263;DHT22;65080;50.908;6.916;2022-11-20T07:38:19;6.00;66.80
76263;DHT22;65080;50.908;6.916;2022-11-20T07:40:47;6.00;66.90
76263;DHT22;65080;50.908;6.916;2022-11-20T07:43:15;6.00;66.90
76263;DHT22;65080;50.908;6.916;2022-11-20T07:45:43;6.00;66.90
76263;DHT22;65080;50.908;6.916;2022-11-20T07:48:13;5.90;67.00
76263;DHT22;65080;50.908;6.916;2022-11-20T07:50:41;5.90;67.10
76263;DHT22;65080;50.908;6.916;2022-11-20T07:53:09;5.90;67.10
76263;DHT22;65080;50.908;6.916;2022-11-20T07:55:39;5.90;67.20
76263;DHT22;65080;50.908;6.916;2022-11-20T07:58:07;6.00;67.30
76263;DHT22;65080;50.908;6.916;2022-11-20T08:00:35;5.90;67.10
76263;DHT22;65080;50.908;6.916;2022-11-20T08:03:04;6.00;67.20
76263;DHT22;65080;50.908;6.916;2022-11-20T08:05:33;6.00;67.30
76263;DHT22;65080;50.908;6.916;2022-11-20T08:08:02;6.00;67.30
76263;DHT22;65080;50.908;6.916;2022-11-20T08:10:30;6.00;67.40
76263;DHT22;65080;50.908;6.916;2022-11-20T08:12:58;6.00;67.50
76263;DHT22;65080;50.908;6.916;2022-11-20T08:15:48;6.00;67.40
76263;DHT22;65080;50.908;6.916;2022-11-20T08:18:16;6.00;67.50
76263;DHT22;65080;50.908;6.916;2022-11-20T08:21:03;6.00;67.60
76263;DHT22;65080;50.908;6.916;2022-11-20T08:23:32;6.00;67.80
76263;DHT22;65080;50.908;6.916;2022-11-20T08:26:00;6.10;67.90
76263;DHT22;65080;50.908;6.916;2022-11-20T08:28:28;6.10;67.80
76263;DHT22;65080;50.908;6.916;2022-11-20T08:30:58;6.20;67.90
76263;DHT22;65080;50.908;6.916;2022-11-20T08:33:27;6.20;68.60
76263;DHT22;65080;50.908;6.916;2022-11-20T08:35:59;6.20;67.80
76263;DHT22;65080;50.908;6.916;2022-11-20T08:38:29;6.30;67.80
76263;DHT22;65080;50.908;6.916;2022-11-20T08:40:57;6.30;67.90
76263;DHT22;65080;50.908;6.916;2022-11-20T08:43:43;6.30;67.90
76263;DHT22;65080;50.908;6.916;2022-11-20T08:46:12;6.30;67.80
76263;DHT22;65080;50.908;6.916;2022-11-20T08:48:40;6.20;67.70
76263;DHT22;65080;50.908;6.916;2022-11-20T08:51:09;6.20;67.80
76263;DHT22;65080;50.908;6.916;2022-11-20T08:53:38;6.30;68.00
76263;DHT22;65080;50.908;6.916;2022-11-20T08:56:07;6.30;68.00
76263;DHT22;65080;50.908;6.916;2022-11-20T08:58:36;6.30;67.80
76263;DHT22;65080;50.908;6.916;2022-11-20T09:01:24;6.40;67.80
76263;DHT22;65080;50.908;6.916;2022-11-20T09:03:55;6.50;67.80
76263;DHT22;65080;50.908;6.916;2022-11-20T09:06:23;6.50;67.60
76263;DHT22;65080;50.908;6.916;2022-11-20T09:08:53;6.50;67.50
76263;DHT22;65080;50.908;6.916;2022-11-20T09:11:21;6.50;67.50
76263;DHT22;65080;50.908;6.916;2022-11-20T09:13:50;6.60;67.50
76263;DHT22;65080;50.908;6.916;2022-11-20T09:16:18;6.60;67.40
76263;DHT22;65080;50.908;6.916;2022-11-20T09:18:49;6.70;67.30
76263;DHT22;65080;50.908;6.916;2022-11-20T09:21:37;6.70;67.10
76263;DHT22;65080;50.908;6.916;2022-11-20T09:24:07;6.70;67.00
76263;DHT22;65080;50.908;6.916;2022-11-20T09:26:35;6.80;67.00
76263;DHT22;65080;50.908;6.916;2022-11-20T09:29:03;6.80;66.80
76263;DHT22;65080;50.908;6.916;2022-11-20T09:31:31;6.80;66.70
76263;DHT22;65080;50.908;6.916;2022-11-20T09:33:59;6.80;66.50
76263;DHT22;65080;50.908;6.916;2022-11-20T09:36:27;6.80;66.30
76263;DHT22;65080;50.908;6.916;2022-11-20T09:38:56;6.80;66.20
76263;DHT22;65080;50.908;6.916;2022-11-20T09:41:45;6.80;66.10
76263;DHT22;65080;50.908;6.916;2022-11-20T09:44:30;6.80;66.10
76263;DHT22;65080;50.908;6.916;2022-11-20T09:47:04;6.90;66.10
76263;DHT22;65080;50.908;6.916;2022-11-20T09:49:46;6.90;66.10
76263;DHT22;65080;50.908;6.916;2022-11-20T09:52:26;6.90;66.10
76263;DHT22;65080;50.908;6.916;2022-11-20T09:55:01;6.90;66.10
76263;DHT22;65080;50.908;6.916;2022-11-20T09:57:35;6.90;66.20
76263;DHT22;65080;50.908;6.916;2022-11-20T10:00:06;6.90;66.30
76263;DHT22;65080;50.908;6.916;2022-11-20T10:02:43;6.90;66.30
76263;DHT22;65080;50.908;6.916;2022-11-20T10:05:18;6.90;66.40
76263;DHT22;65080;50.908;6.916;2022-11-20T10:07:51;6.90;66.40
76263;DHT22;65080;50.908;6.916;2022-11-20T10:10:30;6.90;66.20
76263;DHT22;65080;50.908;6.916;2022-11-20T10:13:15;7.00;66.40
76263;DHT22;65080;50.908;6.916;2022-11-20T10:15:54;6.90;66.40
76263;DHT22;65080;50.908;6.916;2022-11-20T10:18:34;7.00;66.50
76263;DHT22;65080;50.908;6.916;2022-11-20T10:21:09;7.00;66.40
76263;DHT22;65080;50.908;6.916;2022-11-20T10:26:51;7.00;66.60
76263;DHT22;65080;50.908;6.916;2022-11-20T10:29:29;7.00;66.60
76263;DHT22;65080;50.908;6.916;2022-11-20T10:32:02;7.00;66.60
76263;DHT22;65080;50.908;6.916;2022-11-20T10:34:35;7.10;66.70
76263;DHT22;65080;50.908;6.916;2022-11-20T10:37:11;7.10;66.80
76263;DHT22;65080;50.908;6.916;2022-11-20T10:39:44;7.20;67.50
76263;DHT22;65080;50.908;6.916;2022-11-20T10:42:20;7.20;66.70
76263;DHT22;65080;50.908;6.916;2022-11-20T10:44:53;7.20;66.80
76263;DHT22;65080;50.908;6.916;2022-11-20T10:47:33;7.30;66.80
76263;DHT22;65080;50.908;6.916;2022-11-20T10:50:03;7.30;66.70
76263;DHT22;65080;50.908;6.916;2022-11-20T10:52:39;7.20;66.50
76263;DHT22;65080;50.908;6.916;2022-11-20T10:55:21;7.20;66.40
76263;DHT22;65080;50.908;6.916;2022-11-20T10:57:57;7.20;66.40
76263;DHT22;65080;50.908;6.916;2022-11-20T11:00:32;7.20;66.40
76263;DHT22;65080;50.908;6.916;2022-11-20T11:03:00;7.30;66.50
76263;DHT22;65080;50.908;6.916;2022-11-20T11:05:37;7.20;66.40
76263;DHT22;65080;50.908;6.916;2022-11-20T11:08:11;7.30;66.50
76263;DHT22;65080;50.908;6.916;2022-11-20T11:10:46;7.30;66.50
76263;DHT22;65080;50.908;6.916;2022-11-20T11:13:23;7.30;66.50
76263;DHT22;65080;50.908;6.916;2022-11-20T11:15:53;7.30;66.40
76263;DHT22;65080;50.908;6.916;2022-11-20T11:18:26;7.30;66.30
76263;DHT22;65080;50.908;6.916;2022-11-20T11:20:55;7.40;66.30
76263;DHT22;65080;50.908;6.916;2022-11-20T11:23:31;7.40;66.30
76263;DHT22;65080;50.908;6.916;2022-11-20T11:26:02;7.40;66.30
76263;DHT22;65080;50.908;6.916;2022-11-20T11:28:31;7.30;66.20
76263;DHT22;65080;50.908;6.916;2022-11-20T11:31:00;7.40;66.30
76263;DHT22;65080;50.908;6.916;2022-11-20T11:33:30;7.30;66.30
76263;DHT22;65080;50.908;6.916;2022-11-20T11:36:02;7.30;66.30
76263;DHT22;65080;50.908;6.916;2022-11-20T11:38:34;7.30;66.30
76263;DHT22;65080;50.908;6.916;2022-11-20T11:41:03;7.30;67.00
76263;DHT22;65080;50.908;6.916;2022-11-20T11:43:34;7.40;66.50
76263;DHT22;65080;50.908;6.916;2022-11-20T11:46:28;7.40;66.60
76263;DHT22;65080;50.908;6.916;2022-11-20T11:48:58;7.50;66.60
76263;DHT22;65080;50.908;6.916;2022-11-20T11:51:33;7.50;66.60
76263;DHT22;65080;50.908;6.916;2022-11-20T11:54:09;7.50;66.50
76263;DHT22;65080;50.908;6.916;2022-11-20T11:56:40;7.50;66.40
76263;DHT22;65080;50.908;6.916;2022-11-20T11:59:14;7.60;66.40
76263;DHT22;65080;50.908;6.916;2022-11-20T12:01:47;7.50;66.30
76263;DHT22;65080;50.908;6.916;2022-11-20T12:04:23;7.60;66.50
76263;DHT22;65080;50.908;6.916;2022-11-20T12:07:01;7.60;66.50
76263;DHT22;65080;50.908;6.916;2022-11-20T12:09:54;7.60;66.50
76263;DHT22;65080;50.908;6.916;2022-11-20T12:12:29;7.60;66.40
76263;DHT22;65080;50.908;6.916;2022-11-20T12:15:02;7.50;66.30
76263;DHT22;65080;50.908;6.916;2022-11-20T12:17:33;7.60;66.40
76263;DHT22;65080;50.908;6.916;2022-11-20T12:20:02;7.50;66.40
76263;DHT22;65080;50.908;6.916;2022-11-20T12:22:35;7.60;66.60
76263;DHT22;65080;50.908;6.916;2022-11-20T12:25:09;7.60;66.50
76263;DHT22;65080;50.908;6.916;2022-11-20T12:27:58;7.60;66.40
76263;DHT22;65080;50.908;6.916;2022-11-20T12:30:27;7.60;66.50
76263;DHT22;65080;50.908;6.916;2022-11-20T12:33:12;7.60;66.40
76263;DHT22;65080;50.908;6.916;2022-11-20T12:36:07;7.60;66.50
76263;DHT22;65080;50.908;6.916;2022-11-20T12:39:02;7.60;66.60
76263;DHT22;65080;50.908;6.916;2022-11-20T12:41:44;7.60;66.60
76263;DHT22;65080;50.908;6.916;2022-11-20T12:44:49;7.60;66.40
76263;DHT22;65080;50.908;6.916;2022-11-20T12:47:58;7.60;66.30
76263;DHT22;65080;50.908;6.916;2022-11-20T12:50:37;7.60;66.20
76263;DHT22;65080;50.908;6.916;2022-11-20T12:53:33;7.60;66.20
76263;DHT22;65080;50.908;6.916;2022-11-20T12:56:14;7.60;66.30
76263;DHT22;65080;50.908;6.916;2022-11-20T12:58:51;7.70;66.30
76263;DHT22;65080;50.908;6.916;2022-11-20T13:01:25;7.60;66.20
76263;DHT22;65080;50.908;6.916;2022-11-20T13:04:19;7.60;66.20
76263;DHT22;65080;50.908;6.916;2022-11-20T13:06:54;7.70;66.20
76263;DHT22;65080;50.908;6.916;2022-11-20T13:09:23;7.70;66.20
76263;DHT22;65080;50.908;6.916;2022-11-20T13:12:01;7.60;66.10
76263;DHT22;65080;50.908;6.916;2022-11-20T13:14:34;7.70;66.20
76263;DHT22;65080;50.908;6.916;2022-11-20T13:17:07;7.70;66.20
76263;DHT22;65080;50.908;6.916;2022-11-20T13:19:38;7.80;66.30
76263;DHT22;65080;50.908;6.916;2022-11-20T13:22:08;7.80;66.30
76263;DHT22;65080;50.908;6.916;2022-11-20T13:24:37;7.80;66.20
76263;DHT22;65080;50.908;6.916;2022-11-20T13:27:18;7.90;66.20
76263;DHT22;65080;50.908;6.916;2022-11-20T13:29:59;7.90;66.10
76263;DHT22;65080;50.908;6.916;2022-11-20T13:32:28;7.90;66.10
76263;DHT22;65080;50.908;6.916;2022-11-20T13:35:00;7.90;66.10
76263;DHT22;65080;50.908;6.916;2022-11-20T13:37:32;7.90;66.20
76263;DHT22;65080;50.908;6.916;2022-11-20T13:40:21;7.90;66.20
76263;DHT22;65080;50.908;6.916;2022-11-20T13:43:00;7.90;66.20
76263;DHT22;65080;50.908;6.916;2022-11-20T13:45:30;8.00;66.20
76263;DHT22;65080;50.908;6.916;2022-11-20T13:48:02;7.90;66.10
76263;DHT22;65080;50.908;6.916;2022-11-20T13:50:46;7.90;66.10
76263;DHT22;65080;50.908;6.916;2022-11-20T13:53:37;8.00;66.20
76263;DHT22;65080;50.908;6.916;2022-11-20T13:56:19;8.00;66.20
76263;DHT22;65080;50.908;6.916;2022-11-20T13:58:56;8.00;66.20
76263;DHT22;65080;50.908;6.916;2022-11-20T14:01:31;8.00;66.30
76263;DHT22;65080;50.908;6.916;2022-11-20T14:04:06;8.00;66.30
76263;DHT22;65080;50.908;6.916;2022-11-20T14:06:42;7.90;66.40
76263;DHT22;65080;50.908;6.916;2022-11-20T14:09:24;8.00;66.50
76263;DHT22;65080;50.908;6.916;2022-11-20T14:11:52;8.00;66.50
76263;DHT22;65080;50.908;6.916;2022-11-20T14:14:22;8.00;66.60
76263;DHT22;65080;50.908;6.916;2022-11-20T14:16:52;8.00;66.50
76263;DHT22;65080;50.908;6.916;2022-11-20T14:19:26;8.00;66.50
76263;DHT22;65080;50.908;6.916;2022-11-20T14:22:08;8.00;66.60
76263;DHT22;65080;50.908;6.916;2022-11-20T14:24:38;8.00;66.70
76263;DHT22;65080;50.908;6.916;2022-11-20T14:27:12;8.00;66.60
76263;DHT22;65080;50.908;6.916;2022-11-20T14:29:41;8.10;66.70
76263;DHT22;65080;50.908;6.916;2022-11-20T14:32:15;8.10;66.70
76263;DHT22;65080;50.908;6.916;2022-11-20T14:34:46;8.10;66.60
76263;DHT22;65080;50.908;6.916;2022-11-20T14:37:19;8.10;66.60
76263;DHT22;65080;50.908;6.916;2022-11-20T14:39:52;8.10;66.60
76263;DHT22;65080;50.908;6.916;2022-11-20T14:42:22;8.10;66.60
76263;DHT22;65080;50.908;6.916;2022-11-20T14:44:54;8.10;66.60
76263;DHT22;65080;50.908;6.916;2022-11-20T14:47:25;8.10;66.70
76263;DHT22;65080;50.908;6.916;2022-11-20T14:49:55;8.10;66.80
76263;DHT22;65080;50.908;6.916;2022-11-20T14:52:25;8.10;66.80
76263;DHT22;65080;50.908;6.916;2022-11-20T14:54:56;8.10;66.80
76263;DHT22;65080;50.908;6.916;2022-11-20T14:57:27;8.10;66.90
76263;DHT22;65080;50.908;6.916;2022-11-20T15:00:08;8.20;67.10
76263;DHT22;65080;50.908;6.916;2022-11-20T15:02:40;8.20;67.10
76263;DHT22;65080;50.908;6.916;2022-11-20T15:05:09;8.10;67.10
76263;DHT22;65080;50.908;6.916;2022-11-20T15:07:38;8.10;67.20
76263;DHT22;65080;50.908;6.916;2022-11-20T15:10:19;8.10;67.40
76263;DHT22;65080;50.908;6.916;2022-11-20T15:12:49;8.10;67.50
76263;DHT22;65080;50.908;6.916;2022-11-20T15:15:21;8.10;67.60
76263;DHT22;65080;50.908;6.916;2022-11-20T15:17:51;8.10;67.80
76263;DHT22;65080;50.908;6.916;2022-11-20T15:20:22;8.10;68.10
76263;DHT22;65080;50.908;6.916;2022-11-20T15:22:52;8.00;68.30
76263;DHT22;65080;50.908;6.916;2022-11-20T15:25:21;8.00;68.60
76263;DHT22;65080;50.908;6.916;2022-11-20T15:27:54;8.00;69.00
76263;DHT22;65080;50.908;6.916;2022-11-20T15:30:23;8.00;69.20
76263;DHT22;65080;50.908;6.916;2022-11-20T15:32:51;8.10;69.60
76263;DHT22;65080;50.908;6.916;2022-11-20T15:35:19;8.10;69.90
76263;DHT22;65080;50.908;6.916;2022-11-20T15:37:48;8.10;70.10
76263;DHT22;65080;50.908;6.916;2022-11-20T15:40:16;8.10;70.40
76263;DHT22;65080;50.908;6.916;2022-11-20T15:42:45;8.10;70.70
76263;DHT22;65080;50.908;6.916;2022-11-20T15:45:29;8.10;71.00
76263;DHT22;65080;50.908;6.916;2022-11-20T15:47:59;8.10;71.20
76263;DHT22;65080;50.908;6.916;2022-11-20T15:50:36;8.10;71.50
76263;DHT22;65080;50.908;6.916;2022-11-20T15:53:04;8.10;71.80
76263;DHT22;65080;50.908;6.916;2022-11-20T15:55:33;8.10;72.00
76263;DHT22;65080;50.908;6.916;2022-11-20T15:58:02;8.20;72.20
76263;DHT22;65080;50.908;6.916;2022-11-20T16:00:30;8.20;72.40
76263;DHT22;65080;50.908;6.916;2022-11-20T16:02:58;8.20;72.60
76263;DHT22;65080;50.908;6.916;2022-11-20T16:05:28;8.30;72.90
76263;DHT22;65080;50.908;6.916;2022-11-20T16:07:56;8.30;73.10
76263;DHT22;65080;50.908;6.916;2022-11-20T16:10:25;8.30;73.30
76263;DHT22;65080;50.908;6.916;2022-11-20T16:12:53;8.30;73.50
76263;DHT22;65080;50.908;6.916;2022-11-20T16:15:40;8.30;73.70
76263;DHT22;65080;50.908;6.916;2022-11-20T16:18:17;8.40;73.90